Time;durP1;ratioP1;P1;durP2;ratioP2;P2;SDS_P1;SDS_P2;PMS_P1;PMS_P2;Temp;Humidity;BMP_temperature;BMP_pressure;BME280_temperature;BME280_humidity;BME280_pressure;Samples;Min_cycle;Max_cycle;Signal;HPM_P1;HPM_P2
2023/06/24 00:02:10;;;;;;;0.10;0.10;;;;;;;;;;5112195;28;20512;-85
2023/06/24 00:04:36;;;;;;;0.25;0.25;;;;;;;;;;5112435;28;20103;-85
2023/06/24 00:07:02;;;;;;;0.00;0.00;;;;;;;;;;5112484;28;20050;-85
2023/06/24 00:09:29;;;;;;;0.30;0.30;;;;;;;;;;5112375;28;20079;-85
2023/06/24 00:11:55;;;;;;;0.10;0.10;;;;;;;;;;5112239;28;20110;-85
2023/06/24 00:14:23;;;;;;;0.10;0.10;;;;;;;;;;5112706;28;20055;-85
2023/06/24 00:16:51;;;;;;;0.00;0.00;;;;;;;;;;5111897;28;20088;-84
2023/06/24 00:19:18;;;;;;;0.00;0.00;;;;;;;;;;5112359;28;20015;-85
2023/06/24 00:21:44;;;;;;;0.00;0.00;;;;;;;;;;5112395;28;20032;-85
2023/06/24 00:24:10;;;;;;;0.00;0.00;;;;;;;;;;5112182;28;20024;-84
2023/06/24 00:26:36;;;;;;;0.17;0.13;;;;;;;;;;5112446;28;20020;-85
2023/06/24 00:29:02;;;;;;;0.00;0.00;;;;;;;;;;5114364;28;20022;-85
2023/06/24 00:31:28;;;;;;;0.43;0.40;;;;;;;;;;5115716;28;20077;-85
2023/06/24 00:33:54;;;;;;;0.20;0.20;;;;;;;;;;5115944;28;20048;-85
2023/06/24 00:36:21;;;;;;;0.10;0.10;;;;;;;;;;5116105;28;20071;-85
2023/06/24 00:38:48;;;;;;;0.10;0.10;;;;;;;;;;5115947;28;20019;-85
2023/06/24 00:41:15;;;;;;;0.20;0.20;;;;;;;;;;5097648;28;20160;-85
2023/06/24 00:43:41;;;;;;;0.03;0.03;;;;;;;;;;5115832;28;20472;-85
2023/06/24 00:46:07;;;;;;;0.20;0.20;;;;;;;;;;5115878;28;20030;-84
2023/06/24 00:48:33;;;;;;;0.20;0.20;;;;;;;;;;5115754;28;20089;-85
2023/06/24 00:50:59;;;;;;;0.00;0.00;;;;;;;;;;5116389;28;20027;-85
2023/06/24 00:53:25;;;;;;;0.15;0.15;;;;;;;;;;5115743;28;20472;-84
2023/06/24 00:55:52;;;;;;;0.22;0.22;;;;;;;;;;5115647;28;20077;-85
2023/06/24 00:58:20;;;;;;;0.10;0.10;;;;;;;;;;5115635;28;20114;-85
2023/06/24 01:00:48;;;;;;;0.00;0.00;;;;;;;;;;5115653;28;20031;-85
2023/06/24 01:03:14;;;;;;;0.40;0.40;;;;;;;;;;5115664;28;20115;-84
2023/06/24 01:05:43;;;;;;;0.00;0.00;;;;;;;;;;5114313;28;20088;-85
2023/06/24 01:08:15;;;;;;;0.20;0.20;;;;;;;;;;5115697;28;20036;-85
2023/06/24 01:10:41;;;;;;;0.43;0.43;;;;;;;;;;5115580;28;20047;-85
2023/06/24 01:13:07;;;;;;;0.22;0.17;;;;;;;;;;5115297;28;20533;-85
2023/06/24 01:15:33;;;;;;;0.10;0.10;;;;;;;;;;5114934;28;20032;-85
2023/06/24 01:18:08;;;;;;;0.00;0.00;;;;;;;;;;5115302;28;20024;-84
2023/06/24 01:20:45;;;;;;;0.00;0.00;;;;;;;;;;5115353;28;20055;-85
2023/06/24 01:23:23;;;;;;;0.20;0.20;;;;;;;;;;5115110;28;20031;-84
2023/06/24 01:25:58;;;;;;;0.10;0.10;;;;;;;;;;5115107;28;20049;-85
2023/06/24 01:28:39;;;;;;;0.00;0.00;;;;;;;;;;5114876;28;20031;-84
2023/06/24 01:31:28;;;;;;;0.10;0.10;;;;;;;;;;5115388;28;20080;-84
2023/06/24 01:34:08;;;;;;;0.15;0.15;;;;;;;;;;5114811;28;20305;-85
2023/06/24 01:36:35;;;;;;;0.63;0.28;;;;;;;;;;5096561;28;20039;-84
2023/06/24 01:39:06;;;;;;;0.17;0.17;;;;;;;;;;5115033;28;20099;-84
2023/06/24 01:41:36;;;;;;;0.00;0.00;;;;;;;;;;5114028;28;20062;-85
2023/06/24 01:44:04;;;;;;;0.20;0.20;;;;;;;;;;5114751;28;20030;-85
2023/06/24 01:46:30;;;;;;;0.10;0.10;;;;;;;;;;5114897;28;20656;-85
2023/06/24 01:48:58;;;;;;;0.10;0.10;;;;;;;;;;5114710;28;20047;-84
2023/06/24 01:51:25;;;;;;;0.20;0.20;;;;;;;;;;5114675;28;20555;-85
2023/06/24 01:53:52;;;;;;;0.52;0.35;;;;;;;;;;5114517;28;20129;-85
2023/06/24 01:56:19;;;;;;;0.10;0.10;;;;;;;;;;5114925;28;20043;-85
2023/06/24 01:58:46;;;;;;;0.10;0.10;;;;;;;;;;5114234;28;20059;-85
2023/06/24 02:01:13;;;;;;;1.00;0.20;;;;;;;;;;5114441;28;20103;-85
2023/06/24 02:03:40;;;;;;;0.05;0.05;;;;;;;;;;5114467;28;20102;-85
2023/06/24 02:06:09;;;;;;;0.10;0.10;;;;;;;;;;5114761;28;20361;-85
2023/06/24 02:08:36;;;;;;;0.13;0.13;;;;;;;;;;5114319;28;20059;-84
2023/06/24 02:11:02;;;;;;;0.10;0.10;;;;;;;;;;5114402;28;20015;-84
2023/06/24 02:13:32;;;;;;;0.17;0.17;;;;;;;;;;5113919;28;20066;-85
2023/06/24 02:15:59;;;;;;;0.05;0.05;;;;;;;;;;5112913;28;20032;-85
2023/06/24 02:18:27;;;;;;;0.10;0.10;;;;;;;;;;5114168;28;20031;-85
2023/06/24 02:20:53;;;;;;;0.20;0.20;;;;;;;;;;5114459;28;20404;-84
2023/06/24 02:23:20;;;;;;;0.13;0.13;;;;;;;;;;5113962;28;20027;-85
2023/06/24 02:25:46;;;;;;;0.20;0.20;;;;;;;;;;5114074;28;20098;-85
2023/06/24 02:28:12;;;;;;;0.10;0.10;;;;;;;;;;5113758;28;20484;-85
2023/06/24 02:30:39;;;;;;;0.10;0.10;;;;;;;;;;5113783;28;20369;-84
2023/06/24 02:33:06;;;;;;;0.20;0.20;;;;;;;;;;5113710;28;20023;-85
2023/06/24 02:35:32;;;;;;;0.20;0.20;;;;;;;;;;5114001;28;20036;-85
2023/06/24 02:37:58;;;;;;;1.23;0.65;;;;;;;;;;5113716;28;20541;-85
2023/06/24 02:40:25;;;;;;;0.10;0.10;;;;;;;;;;5113677;28;20023;-84
2023/06/24 02:42:51;;;;;;;0.32;0.32;;;;;;;;;;5113117;28;20048;-85
2023/06/24 02:45:17;;;;;;;0.10;0.10;;;;;;;;;;5113534;28;20028;-85
2023/06/24 02:47:45;;;;;;;0.20;0.20;;;;;;;;;;5113818;28;20052;-84
2023/06/24 02:50:12;;;;;;;0.52;0.52;;;;;;;;;;5113503;28;20063;-84
2023/06/24 02:52:38;;;;;;;0.20;0.20;;;;;;;;;;5112455;28;20466;-84
2023/06/24 02:55:05;;;;;;;1.17;0.30;;;;;;;;;;5113355;28;20096;-85
2023/06/24 02:57:32;;;;;;;0.00;0.00;;;;;;;;;;5113248;28;20023;-85
2023/06/24 02:59:58;;;;;;;0.10;0.10;;;;;;;;;;5113269;28;20488;-84
2023/06/24 03:02:25;;;;;;;1.10;0.50;;;;;;;;;;5113919;28;20042;-84
2023/06/24 03:04:51;;;;;;;0.43;0.43;;;;;;;;;;5113261;28;20043;-85
2023/06/24 03:07:20;;;;;;;0.28;0.28;;;;;;;;;;5113110;28;20058;-84
2023/06/24 03:09:47;;;;;;;0.60;0.38;;;;;;;;;;5112874;28;20035;-84
2023/06/24 03:12:13;;;;;;;0.32;0.30;;;;;;;;;;5112975;28;20031;-84
2023/06/24 03:14:38;;;;;;;0.10;0.10;;;;;;;;;;5113482;28;20024;-85
2023/06/24 03:17:05;;;;;;;0.30;0.30;;;;;;;;;;5112983;28;20028;-84
2023/06/24 03:19:31;;;;;;;0.10;0.10;;;;;;;;;;5111811;28;20228;-84
2023/06/24 03:21:57;;;;;;;0.20;0.20;;;;;;;;;;5112922;28;20537;-84
2023/06/24 03:24:23;;;;;;;0.50;0.50;;;;;;;;;;5112582;28;20031;-84
2023/06/24 03:26:55;;;;;;;2.50;0.35;;;;;;;;;;5113333;28;20041;-84
2023/06/24 03:29:22;;;;;;;0.20;0.20;;;;;;;;;;5112955;28;20031;-84
2023/06/24 03:31:48;;;;;;;0.00;0.00;;;;;;;;;;5112794;28;20455;-84
2023/06/24 03:34:16;;;;;;;0.52;0.52;;;;;;;;;;5112869;28;20048;-84
2023/06/24 03:36:42;;;;;;;0.10;0.10;;;;;;;;;;5112525;28;20551;-84
2023/06/24 03:39:08;;;;;;;0.10;0.10;;;;;;;;;;5112429;28;20059;-85
2023/06/24 03:41:34;;;;;;;0.57;0.20;;;;;;;;;;5112741;28;20106;-85
2023/06/24 03:44:01;;;;;;;0.10;0.10;;;;;;;;;;5112422;28;20064;-84
2023/06/24 03:46:32;;;;;;;0.10;0.10;;;;;;;;;;5112864;28;20488;-84
2023/06/24 03:48:58;;;;;;;0.20;0.20;;;;;;;;;;5112565;28;20065;-85
2023/06/24 03:51:24;;;;;;;0.13;0.13;;;;;;;;;;5112910;28;20486;-84
2023/06/24 03:53:51;;;;;;;0.13;0.13;;;;;;;;;;5112279;28;20102;-84
2023/06/24 03:56:17;;;;;;;0.20;0.20;;;;;;;;;;5112571;28;20039;-85
2023/06/24 03:58:43;;;;;;;0.05;0.05;;;;;;;;;;5112977;28;20019;-84
2023/06/24 04:01:10;;;;;;;0.00;0.00;;;;;;;;;;5112563;28;20054;-85
2023/06/24 04:03:36;;;;;;;0.10;0.10;;;;;;;;;;5113906;28;20487;-85
2023/06/24 04:06:02;;;;;;;0.10;0.10;;;;;;;;;;5116675;28;20023;-84
2023/06/24 04:08:31;;;;;;;0.40;0.40;;;;;;;;;;5116400;28;20019;-84
2023/06/24 04:11:03;;;;;;;0.10;0.10;;;;;;;;;;5116698;28;20027;-84
2023/06/24 04:13:29;;;;;;;0.35;0.35;;;;;;;;;;5116820;28;20548;-84
2023/06/24 04:15:55;;;;;;;0.10;0.10;;;;;;;;;;5116463;28;20036;-84
2023/06/24 04:18:21;;;;;;;0.00;0.00;;;;;;;;;;5116643;28;20028;-84
2023/06/24 04:20:47;;;;;;;0.10;0.10;;;;;;;;;;5116297;28;20038;-84
2023/06/24 04:23:14;;;;;;;0.15;0.15;;;;;;;;;;5116596;28;20032;-84
2023/06/24 04:25:40;;;;;;;0.22;0.22;;;;;;;;;;5116138;28;20451;-84
2023/06/24 04:28:06;;;;;;;0.20;0.20;;;;;;;;;;5116295;28;20019;-84
2023/06/24 04:30:35;;;;;;;0.28;0.28;;;;;;;;;;5116085;28;20031;-84
2023/06/24 04:33:01;;;;;;;0.43;0.43;;;;;;;;;;5116444;28;20099;-83
2023/06/24 04:35:27;;;;;;;0.13;0.13;;;;;;;;;;5115952;28;20060;-84
2023/06/24 04:37:53;;;;;;;0.10;0.10;;;;;;;;;;5115629;28;20391;-84
2023/06/24 04:40:19;;;;;;;0.10;0.10;;;;;;;;;;5116164;28;20024;-84
2023/06/24 04:42:45;;;;;;;0.40;0.28;;;;;;;;;;5115801;28;20115;-84
2023/06/24 04:45:11;;;;;;;0.30;0.30;;;;;;;;;;5115895;28;20020;-84
2023/06/24 04:47:37;;;;;;;0.10;0.10;;;;;;;;;;5115072;28;20449;-84
2023/06/24 04:50:03;;;;;;;0.30;0.20;;;;;;;;;;5115742;28;20098;-84
2023/06/24 04:52:29;;;;;;;0.10;0.10;;;;;;;;;;5114274;28;20114;-84
2023/06/24 04:54:55;;;;;;;0.10;0.10;;;;;;;;;;5115743;28;20024;-84
2023/06/24 04:57:29;;;;;;;0.40;0.40;;;;;;;;;;5116046;28;20119;-84
2023/06/24 04:59:55;;;;;;;0.28;0.28;;;;;;;;;;5115738;28;20037;-84
2023/06/24 05:02:21;;;;;;;0.43;0.43;;;;;;;;;;5115739;28;20058;-84
2023/06/24 05:04:47;;;;;;;0.10;0.10;;;;;;;;;;5115719;28;20024;-84
2023/06/24 05:07:13;;;;;;;0.30;0.30;;;;;;;;;;5113958;28;20035;-84
2023/06/24 05:09:39;;;;;;;0.30;0.22;;;;;;;;;;5115544;28;20023;-84
2023/06/24 05:12:05;;;;;;;1.60;0.52;;;;;;;;;;5115906;28;20092;-85
2023/06/24 05:14:31;;;;;;;0.20;0.20;;;;;;;;;;5114732;28;20397;-84
2023/06/24 05:16:57;;;;;;;0.20;0.20;;;;;;;;;;5114951;28;20134;-84
2023/06/24 05:19:23;;;;;;;0.20;0.20;;;;;;;;;;5115703;28;20026;-84
2023/06/24 05:21:49;;;;;;;0.20;0.20;;;;;;;;;;5114948;28;20031;-85
2023/06/24 05:24:15;;;;;;;0.05;0.05;;;;;;;;;;5115139;28;20024;-84
2023/06/24 05:26:41;;;;;;;0.28;0.28;;;;;;;;;;5115203;28;20026;-84
2023/06/24 05:29:07;;;;;;;0.10;0.10;;;;;;;;;;5115087;28;20027;-84
2023/06/24 05:31:33;;;;;;;0.08;0.08;;;;;;;;;;5114969;28;20055;-84
2023/06/24 05:34:00;;;;;;;0.10;0.10;;;;;;;;;;5115256;28;20048;-84
2023/06/24 05:36:25;;;;;;;0.30;0.25;;;;;;;;;;5115677;28;20031;-90
2023/06/24 05:38:51;;;;;;;0.20;0.20;;;;;;;;;;5116223;28;20038;-91
2023/06/24 05:41:17;;;;;;;0.10;0.10;;;;;;;;;;5115981;28;20027;-90
2023/06/24 05:43:44;;;;;;;0.10;0.10;;;;;;;;;;5115753;28;20054;-88
2023/06/24 05:46:10;;;;;;;0.10;0.10;;;;;;;;;;5115852;28;20034;-91
2023/06/24 05:48:36;;;;;;;0.00;0.00;;;;;;;;;;5113936;28;20024;-85
2023/06/24 05:51:02;;;;;;;0.00;0.00;;;;;;;;;;5114432;28;20119;-84
2023/06/24 05:53:28;;;;;;;0.00;0.00;;;;;;;;;;5114568;28;20421;-84
2023/06/24 05:55:54;;;;;;;0.17;0.10;;;;;;;;;;5114736;28;20043;-85
2023/06/24 05:58:20;;;;;;;0.00;0.00;;;;;;;;;;5115054;28;20479;-86
2023/06/24 06:00:46;;;;;;;0.20;0.20;;;;;;;;;;5114522;28;20110;-87
2023/06/24 06:03:12;;;;;;;0.20;0.20;;;;;;;;;;5115039;28;20496;-87
2023/06/24 06:05:38;;;;;;;0.20;0.10;;;;;;;;;;5114097;28;20023;-87
2023/06/24 06:08:04;;;;;;;0.00;0.00;;;;;;;;;;5114447;28;20028;-87
2023/06/24 06:10:30;;;;;;;0.10;0.10;;;;;;;;;;5114840;28;20548;-87
2023/06/24 06:12:56;;;;;;;0.30;0.30;;;;;;;;;;5114089;28;20031;-86
2023/06/24 06:15:22;;;;;;;0.05;0.05;;;;;;;;;;5114017;28;20031;-86
2023/06/24 06:17:48;;;;;;;0.30;0.28;;;;;;;;;;5114140;28;20069;-87
2023/06/24 06:20:14;;;;;;;0.08;0.08;;;;;;;;;;5113868;28;20472;-87
2023/06/24 06:22:40;;;;;;;0.20;0.20;;;;;;;;;;5114393;28;20106;-87
2023/06/24 06:25:06;;;;;;;0.47;0.15;;;;;;;;;;5113950;28;20136;-86
2023/06/24 06:27:33;;;;;;;0.03;0.03;;;;;;;;;;5113817;28;20027;-87
2023/06/24 06:29:59;;;;;;;0.22;0.22;;;;;;;;;;5113193;28;20096;-87
2023/06/24 06:32:24;;;;;;;0.30;0.30;;;;;;;;;;5113270;28;20066;-88
2023/06/24 06:34:51;;;;;;;0.20;0.20;;;;;;;;;;5114043;28;20506;-88
2023/06/24 06:37:17;;;;;;;0.28;0.20;;;;;;;;;;5113460;28;20510;-88
2023/06/24 06:39:43;;;;;;;0.30;0.30;;;;;;;;;;5113945;28;20384;-87
2023/06/24 06:42:08;;;;;;;0.30;0.20;;;;;;;;;;5113856;28;20028;-88
2023/06/24 06:44:34;;;;;;;0.10;0.10;;;;;;;;;;5113789;28;20035;-87
2023/06/24 06:47:00;;;;;;;0.43;0.43;;;;;;;;;;5094111;28;20030;-88
2023/06/24 06:49:26;;;;;;;0.10;0.10;;;;;;;;;;5114216;28;20402;-87
2023/06/24 06:51:55;;;;;;;0.10;0.10;;;;;;;;;;5113010;28;20020;-88
2023/06/24 06:54:21;;;;;;;0.25;0.25;;;;;;;;;;5113788;28;20039;-89
2023/06/24 06:56:47;;;;;;;0.40;0.40;;;;;;;;;;5113716;28;20107;-87
2023/06/24 06:59:13;;;;;;;0.10;0.10;;;;;;;;;;5113629;28;20061;-88
2023/06/24 07:01:39;;;;;;;0.38;0.38;;;;;;;;;;5095033;28;20040;-88
2023/06/24 07:04:05;;;;;;;0.10;0.10;;;;;;;;;;5113017;28;20023;-88
2023/06/24 07:06:32;;;;;;;0.32;0.30;;;;;;;;;;5113981;28;20020;-90
2023/06/24 07:08:58;;;;;;;0.10;0.10;;;;;;;;;;5113613;28;20068;-88
2023/06/24 07:11:24;;;;;;;0.25;0.25;;;;;;;;;;5095548;28;20024;-89
2023/06/24 07:13:51;;;;;;;0.25;0.25;;;;;;;;;;5112534;28;20041;-89
2023/06/24 07:28:19;;;;;;;0.00;0.00;;;;;;;;;;5065824;28;20443;-87
2023/06/24 07:30:45;;;;;;;0.52;0.35;;;;;;;;;;5065026;28;20025;-87
2023/06/24 07:33:11;;;;;;;0.50;0.32;;;;;;;;;;5063823;27;20041;-87
2023/06/24 07:35:37;;;;;;;0.30;0.30;;;;;;;;;;5063301;28;20156;-87
2023/06/24 07:38:03;;;;;;;0.20;0.20;;;;;;;;;;5064388;28;20032;-87
2023/06/24 07:40:29;;;;;;;0.22;0.20;;;;;;;;;;5064401;27;20100;-87
2023/06/24 07:42:55;;;;;;;0.32;0.30;;;;;;;;;;5063467;28;20033;-87
2023/06/24 07:45:21;;;;;;;0.47;0.47;;;;;;;;;;5065641;27;20493;-87
2023/06/24 07:47:47;;;;;;;1.85;1.08;;;;;;;;;;5065117;27;20029;-87
2023/06/24 07:50:13;;;;;;;0.30;0.30;;;;;;;;;;5064355;27;20044;-86
2023/06/24 07:52:39;;;;;;;0.20;0.20;;;;;;;;;;5063635;27;20067;-87
2023/06/24 07:55:05;;;;;;;0.20;0.20;;;;;;;;;;5063821;28;20057;-88
2023/06/24 07:57:31;;;;;;;0.38;0.28;;;;;;;;;;5065346;27;20068;-87
2023/06/24 07:59:57;;;;;;;0.13;0.13;;;;;;;;;;5065824;27;20044;-87
2023/06/24 08:02:26;;;;;;;0.25;0.25;;;;;;;;;;5064990;27;20071;-88
2023/06/24 08:04:52;;;;;;;0.22;0.22;;;;;;;;;;5062984;28;20506;-88
2023/06/24 08:07:18;;;;;;;0.30;0.30;;;;;;;;;;5063115;27;20057;-87
2023/06/24 08:09:44;;;;;;;0.10;0.10;;;;;;;;;;5062184;27;20115;-86
2023/06/24 08:12:10;;;;;;;0.30;0.30;;;;;;;;;;5065062;28;20033;-87
2023/06/24 08:14:36;;;;;;;0.35;0.17;;;;;;;;;;5065088;28;20420;-87
2023/06/24 08:17:02;;;;;;;0.43;0.25;;;;;;;;;;5060335;27;20033;-87
2023/06/24 08:19:28;;;;;;;0.38;0.22;;;;;;;;;;5049904;28;20021;-87
2023/06/24 08:21:54;;;;;;;0.00;0.00;;;;;;;;;;5086035;27;20064;-87
2023/06/24 08:24:20;;;;;;;0.30;0.22;;;;;;;;;;5157943;27;20022;-87
2023/06/24 08:26:46;;;;;;;0.10;0.10;;;;;;;;;;5064713;28;20055;-88
2023/06/24 08:29:12;;;;;;;0.13;0.13;;;;;;;;;;5051426;27;20112;-87
2023/06/24 08:31:38;;;;;;;0.32;0.32;;;;;;;;;;5050018;28;20111;-87
2023/06/24 08:34:06;;;;;;;0.20;0.20;;;;;;;;;;5050853;28;20386;-87
2023/06/24 08:36:32;;;;;;;1.23;0.65;;;;;;;;;;5051611;28;20029;-87
2023/06/24 08:38:58;;;;;;;0.20;0.20;;;;;;;;;;5050893;28;20397;-87
2023/06/24 08:41:25;;;;;;;0.52;0.40;;;;;;;;;;5051409;28;20026;-87
2023/06/24 08:43:51;;;;;;;1.25;0.32;;;;;;;;;;5050646;28;20033;-88
2023/06/24 08:46:18;;;;;;;0.40;0.40;;;;;;;;;;5050826;28;20060;-88
2023/06/24 08:48:45;;;;;;;0.13;0.13;;;;;;;;;;5051370;28;20058;-87
2023/06/24 08:51:12;;;;;;;0.73;0.40;;;;;;;;;;5049533;28;20502;-87
2023/06/24 08:53:39;;;;;;;0.20;0.20;;;;;;;;;;5050771;28;20053;-87
2023/06/24 08:56:05;;;;;;;0.77;0.30;;;;;;;;;;5049796;28;20503;-87
2023/06/24 08:58:31;;;;;;;0.35;0.35;;;;;;;;;;5050890;28;20021;-87
2023/06/24 09:00:57;;;;;;;0.20;0.20;;;;;;;;;;5047971;28;20478;-87
2023/06/24 09:03:23;;;;;;;0.17;0.17;;;;;;;;;;5049387;28;20052;-87
2023/06/24 09:05:49;;;;;;;0.30;0.30;;;;;;;;;;5049711;28;20036;-87
2023/06/24 09:08:18;;;;;;;0.30;0.30;;;;;;;;;;5050826;28;20029;-88
2023/06/24 09:10:44;;;;;;;0.22;0.22;;;;;;;;;;5050496;28;20112;-88
2023/06/24 09:13:10;;;;;;;0.32;0.32;;;;;;;;;;5050848;28;20081;-86
2023/06/24 09:15:37;;;;;;;0.63;0.30;;;;;;;;;;5049457;28;20025;-88
2023/06/24 09:18:03;;;;;;;0.85;0.50;;;;;;;;;;5044438;28;20033;-88
2023/06/24 09:20:31;;;;;;;0.75;0.45;;;;;;;;;;5031049;28;20475;-87
2023/06/24 09:23:04;;;;;;;0.52;0.32;;;;;;;;;;5043533;27;20081;-87
2023/06/24 09:25:30;;;;;;;0.10;0.10;;;;;;;;;;5050287;28;20037;-86
2023/06/24 09:28:00;;;;;;;0.35;0.20;;;;;;;;;;5048895;28;20133;-87
2023/06/24 09:30:26;;;;;;;0.65;0.65;;;;;;;;;;5050090;28;20053;-86
2023/06/24 09:32:53;;;;;;;0.30;0.30;;;;;;;;;;5048685;28;20074;-87
2023/06/24 09:35:23;;;;;;;0.85;0.47;;;;;;;;;;5048479;28;20040;-87
2023/06/24 09:37:53;;;;;;;0.73;0.52;;;;;;;;;;5049558;28;20028;-87
2023/06/24 09:40:19;;;;;;;0.22;0.22;;;;;;;;;;5047122;28;20033;-86
2023/06/24 09:42:49;;;;;;;0.10;0.10;;;;;;;;;;5050502;28;20029;-86
2023/06/24 09:45:15;;;;;;;0.43;0.38;;;;;;;;;;5103223;27;20064;-87
2023/06/24 09:47:41;;;;;;;4.35;0.50;;;;;;;;;;5048580;28;20018;-86
2023/06/24 09:50:07;;;;;;;1.33;0.77;;;;;;;;;;5050023;28;20044;-87
2023/06/24 09:52:35;;;;;;;0.68;0.68;;;;;;;;;;5049819;28;20017;-87
2023/06/24 09:55:02;;;;;;;0.50;0.40;;;;;;;;;;5046984;28;20029;-86
2023/06/24 09:57:30;;;;;;;0.90;0.63;;;;;;;;;;5042765;28;20030;-87
2023/06/24 09:59:56;;;;;;;0.52;0.52;;;;;;;;;;5049139;28;20021;-87
2023/06/24 10:02:22;;;;;;;0.75;0.75;;;;;;;;;;5048778;28;20036;-86
2023/06/24 10:04:49;;;;;;;0.20;0.20;;;;;;;;;;5047774;28;20047;-86
2023/06/24 10:07:15;;;;;;;0.28;0.28;;;;;;;;;;5049817;28;20432;-86
2023/06/24 10:09:41;;;;;;;0.70;0.30;;;;;;;;;;5047893;27;20051;-87
2023/06/24 10:12:07;;;;;;;0.13;0.13;;;;;;;;;;5049487;28;20052;-86
2023/06/24 10:14:33;;;;;;;0.30;0.30;;;;;;;;;;5049464;28;20036;-86
2023/06/24 10:17:03;;;;;;;0.52;0.52;;;;;;;;;;5048690;28;20498;-87
2023/06/24 10:19:29;;;;;;;0.50;0.50;;;;;;;;;;5048948;28;20058;-86
2023/06/24 10:21:58;;;;;;;0.13;0.13;;;;;;;;;;5050044;28;20029;-87
2023/06/24 10:24:34;;;;;;;0.85;0.38;;;;;;;;;;5049224;27;20461;-87
2023/06/24 10:27:03;;;;;;;0.28;0.28;;;;;;;;;;5051581;28;20059;-86
2023/06/24 10:29:33;;;;;;;0.30;0.10;;;;;;;;;;5048390;28;20036;-87
2023/06/24 10:32:03;;;;;;;1.67;0.52;;;;;;;;;;5049475;28;20029;-86
2023/06/24 10:34:34;;;;;;;0.10;0.10;;;;;;;;;;5048969;28;20025;-86
2023/06/24 10:37:18;;;;;;;0.20;0.20;;;;;;;;;;5049412;28;20097;-85
2023/06/24 10:39:50;;;;;;;0.45;0.20;;;;;;;;;;5048082;28;20543;-86
2023/06/24 10:42:34;;;;;;;0.20;0.20;;;;;;;;;;5048205;28;20047;-87
2023/06/24 10:45:01;;;;;;;0.20;0.15;;;;;;;;;;5049154;28;20025;-87
2023/06/24 10:47:28;;;;;;;0.13;0.10;;;;;;;;;;5049651;28;20030;-87
2023/06/24 10:49:54;;;;;;;0.10;0.10;;;;;;;;;;5049356;28;20488;-87
2023/06/24 10:52:21;;;;;;;0.52;0.52;;;;;;;;;;5048500;28;20041;-86
2023/06/24 10:54:47;;;;;;;0.00;0.00;;;;;;;;;;5049542;28;20052;-87
2023/06/24 10:57:13;;;;;;;0.55;0.20;;;;;;;;;;5049232;28;20037;-87
2023/06/24 10:59:40;;;;;;;0.85;0.55;;;;;;;;;;5048623;28;20605;-87
2023/06/24 11:02:11;;;;;;;0.17;0.17;;;;;;;;;;5049051;28;20435;-87
2023/06/24 11:04:47;;;;;;;0.10;0.10;;;;;;;;;;5049481;28;20074;-86
2023/06/24 11:07:14;;;;;;;0.35;0.35;;;;;;;;;;5048991;28;20071;-86
2023/06/24 11:09:43;;;;;;;0.20;0.20;;;;;;;;;;5049414;28;20032;-85
2023/06/24 11:12:10;;;;;;;0.15;0.15;;;;;;;;;;5046885;28;20029;-86
2023/06/24 11:14:36;;;;;;;0.38;0.20;;;;;;;;;;5046778;28;20029;-86
2023/06/24 11:17:03;;;;;;;0.20;0.20;;;;;;;;;;5048520;28;20082;-85
2023/06/24 11:19:30;;;;;;;0.10;0.10;;;;;;;;;;5048808;28;20028;-86
2023/06/24 11:22:00;;;;;;;1.33;0.57;;;;;;;;;;5048784;28;20435;-85
2023/06/24 11:24:27;;;;;;;0.20;0.20;;;;;;;;;;5046304;27;20440;-86
2023/06/24 11:26:52;;;;;;;0.25;0.25;;;;;;;;;;5048523;28;20052;-86
2023/06/24 11:29:18;;;;;;;0.80;0.45;;;;;;;;;;5048329;28;20390;-86
2023/06/24 11:31:47;;;;;;;0.20;0.20;;;;;;;;;;5047513;28;20029;-85
2023/06/24 11:34:13;;;;;;;0.80;0.70;;;;;;;;;;5047133;28;20040;-86
2023/06/24 11:36:39;;;;;;;0.10;0.10;;;;;;;;;;5048213;28;20078;-85
2023/06/24 11:39:05;;;;;;;0.60;0.45;;;;;;;;;;5047479;28;20398;-86
2023/06/24 11:41:31;;;;;;;0.10;0.10;;;;;;;;;;5048751;28;20021;-86
2023/06/24 11:43:58;;;;;;;0.08;0.08;;;;;;;;;;5048051;28;20065;-85
2023/06/24 11:46:35;;;;;;;0.15;0.15;;;;;;;;;;5048444;28;20013;-86
2023/06/24 11:49:07;;;;;;;0.52;0.10;;;;;;;;;;5046604;28;20494;-86
2023/06/24 11:51:34;;;;;;;3.63;0.93;;;;;;;;;;5028641;28;20402;-86
2023/06/24 11:54:05;;;;;;;0.05;0.05;;;;;;;;;;5030157;28;20040;-86
2023/06/24 11:56:37;;;;;;;1.55;0.70;;;;;;;;;;5047378;28;20036;-85
2023/06/24 11:59:07;;;;;;;0.13;0.13;;;;;;;;;;5048268;28;20029;-86
2023/06/24 12:01:33;;;;;;;0.00;0.00;;;;;;;;;;5047481;28;20029;-85
2023/06/24 12:04:13;;;;;;;0.30;0.30;;;;;;;;;;5049156;28;20061;-86
2023/06/24 12:06:40;;;;;;;0.20;0.20;;;;;;;;;;5050708;28;20044;-85
2023/06/24 12:09:06;;;;;;;0.13;0.13;;;;;;;;;;5051511;28;20033;-86
2023/06/24 12:11:32;;;;;;;0.40;0.40;;;;;;;;;;5050862;28;20025;-84
2023/06/24 12:13:58;;;;;;;0.75;0.25;;;;;;;;;;5051508;28;20052;-84
2023/06/24 12:16:25;;;;;;;0.65;0.30;;;;;;;;;;5050589;28;20076;-84
2023/06/24 12:18:51;;;;;;;0.20;0.20;;;;;;;;;;5047571;28;20515;-84
2023/06/24 12:21:17;;;;;;;0.30;0.30;;;;;;;;;;5051200;28;20025;-84
2023/06/24 12:23:43;;;;;;;1.35;0.60;;;;;;;;;;5048888;28;20064;-84
2023/06/24 12:26:09;;;;;;;0.22;0.22;;;;;;;;;;5050701;28;20498;-84
2023/06/24 12:28:35;;;;;;;0.10;0.10;;;;;;;;;;5049967;28;20501;-84
2023/06/24 12:31:01;;;;;;;0.38;0.20;;;;;;;;;;5049934;28;20025;-84
2023/06/24 12:33:27;;;;;;;0.35;0.35;;;;;;;;;;5051264;28;20544;-84
2023/06/24 12:35:53;;;;;;;0.28;0.28;;;;;;;;;;5051181;28;20149;-84
2023/06/24 12:38:19;;;;;;;0.10;0.10;;;;;;;;;;5050834;28;20129;-84
2023/06/24 12:40:45;;;;;;;0.40;0.40;;;;;;;;;;5050631;28;20029;-84
2023/06/24 12:43:11;;;;;;;0.10;0.10;;;;;;;;;;5050759;28;20037;-84
2023/06/24 12:45:38;;;;;;;0.25;0.25;;;;;;;;;;5050431;28;20044;-84
2023/06/24 12:48:04;;;;;;;0.30;0.10;;;;;;;;;;5049591;28;20021;-84
2023/06/24 12:50:31;;;;;;;0.65;0.65;;;;;;;;;;5050053;27;20037;-84
2023/06/24 12:52:57;;;;;;;0.10;0.10;;;;;;;;;;5051240;28;20018;-83
2023/06/24 12:55:23;;;;;;;0.17;0.10;;;;;;;;;;5050355;28;20037;-84
2023/06/24 12:57:49;;;;;;;0.20;0.10;;;;;;;;;;5050192;28;20051;-84
2023/06/24 13:00:17;;;;;;;0.20;0.20;;;;;;;;;;5050479;28;20032;-84
2023/06/24 13:02:43;;;;;;;3.50;0.30;;;;;;;;;;5050231;28;20498;-84
2023/06/24 13:05:09;;;;;;;0.10;0.10;;;;;;;;;;5050149;28;20542;-84
2023/06/24 13:07:35;;;;;;;0.22;0.22;;;;;;;;;;5050842;28;20066;-84
2023/06/24 13:10:01;;;;;;;0.30;0.30;;;;;;;;;;5050168;28;20037;-84
2023/06/24 13:12:27;;;;;;;0.10;0.10;;;;;;;;;;5050813;28;20025;-84
2023/06/24 13:14:54;;;;;;;0.30;0.30;;;;;;;;;;5049074;28;20029;-84
2023/06/24 13:17:19;;;;;;;0.20;0.20;;;;;;;;;;5050360;28;20029;-84
2023/06/24 13:19:45;;;;;;;0.25;0.25;;;;;;;;;;5050748;28;20505;-84
2023/06/24 13:22:11;;;;;;;0.20;0.20;;;;;;;;;;5050525;28;20027;-84
2023/06/24 13:24:37;;;;;;;0.75;0.35;;;;;;;;;;5049992;27;20113;-84
2023/06/24 13:27:03;;;;;;;0.10;0.10;;;;;;;;;;5049960;28;20166;-84
2023/06/24 13:29:30;;;;;;;0.30;0.30;;;;;;;;;;5050364;28;20036;-84
2023/06/24 13:31:56;;;;;;;0.80;0.68;;;;;;;;;;5050072;28;20114;-84
2023/06/24 13:34:22;;;;;;;0.30;0.10;;;;;;;;;;5050005;28;20033;-84
2023/06/24 13:36:48;;;;;;;1.85;0.82;;;;;;;;;;5050241;28;20471;-84
2023/06/24 13:39:16;;;;;;;0.10;0.10;;;;;;;;;;5049399;28;20029;-84
2023/06/24 13:41:42;;;;;;;0.13;0.13;;;;;;;;;;5038745;28;20443;-84
2023/06/24 13:44:09;;;;;;;0.10;0.10;;;;;;;;;;5049625;28;20053;-85
2023/06/24 13:46:35;;;;;;;0.10;0.10;;;;;;;;;;5048601;28;20033;-85
2023/06/24 13:49:02;;;;;;;0.47;0.47;;;;;;;;;;5049016;28;20033;-85
2023/06/24 13:51:28;;;;;;;0.08;0.08;;;;;;;;;;5049118;28;20101;-85
2023/06/24 13:53:54;;;;;;;0.10;0.10;;;;;;;;;;5045877;28;20025;-85
2023/06/24 13:56:20;;;;;;;0.35;0.35;;;;;;;;;;5050209;28;20045;-85
2023/06/24 13:58:47;;;;;;;1.08;0.25;;;;;;;;;;5037519;28;20030;-85
2023/06/24 14:01:13;;;;;;;0.38;0.38;;;;;;;;;;5028495;28;20050;-85
2023/06/24 14:03:39;;;;;;;0.10;0.10;;;;;;;;;;5029861;28;20025;-85
2023/06/24 14:06:06;;;;;;;0.25;0.25;;;;;;;;;;5043744;28;20021;-85
2023/06/24 14:08:34;;;;;;;0.43;0.25;;;;;;;;;;5047162;28;20047;-85
2023/06/24 14:11:00;;;;;;;0.22;0.22;;;;;;;;;;5048903;28;20028;-85
2023/06/24 14:13:27;;;;;;;0.47;0.40;;;;;;;;;;5049605;28;22679;-85
2023/06/24 14:15:53;;;;;;;0.20;0.20;;;;;;;;;;5049761;28;20025;-85
2023/06/24 14:18:19;;;;;;;0.55;0.20;;;;;;;;;;5049192;28;20039;-85
2023/06/24 14:20:45;;;;;;;0.38;0.38;;;;;;;;;;5048694;28;20025;-85
2023/06/24 14:23:11;;;;;;;0.38;0.38;;;;;;;;;;5048850;27;20037;-85
2023/06/24 14:25:37;;;;;;;0.10;0.10;;;;;;;;;;5048765;28;20052;-85
2023/06/24 14:28:04;;;;;;;0.43;0.43;;;;;;;;;;5049635;28;20060;-85
2023/06/24 14:30:30;;;;;;;0.20;0.20;;;;;;;;;;5047719;28;20112;-84
2023/06/24 14:32:56;;;;;;;0.77;0.77;;;;;;;;;;5049672;28;20493;-85
2023/06/24 14:35:22;;;;;;;0.38;0.38;;;;;;;;;;5044994;28;20021;-86
2023/06/24 14:37:48;;;;;;;0.38;0.30;;;;;;;;;;5041107;27;20121;-85
2023/06/24 14:40:14;;;;;;;0.10;0.10;;;;;;;;;;5037047;27;20486;-85
2023/06/24 14:42:40;;;;;;;0.43;0.22;;;;;;;;;;5049367;28;20029;-85
2023/06/24 14:45:07;;;;;;;0.30;0.20;;;;;;;;;;5049127;28;20028;-84
2023/06/24 14:47:33;;;;;;;1.00;0.60;;;;;;;;;;5049017;28;20069;-84
2023/06/24 14:49:59;;;;;;;0.52;0.52;;;;;;;;;;5048761;28;20032;-85
2023/06/24 14:52:25;;;;;;;0.30;0.30;;;;;;;;;;5048596;28;20025;-84
2023/06/24 14:54:51;;;;;;;0.10;0.10;;;;;;;;;;5048707;28;20055;-84